Time;durP1;ratioP1;P1;durP2;ratioP2;P2;SDS_P1;SDS_P2;PMS_P1;PMS_P2;Temp;Humidity;BMP_temperature;BMP_pressure;BME280_temperature;BME280_humidity;BME280_pressure;Samples;Min_cycle;Max_cycle;Signal;HPM_P1;HPM_P2
2023/05/30 00:01:37;;;;;;;;;;;;;;;16.74;32.43;101229.41;4950545;28;98365;-68
2023/05/30 00:04:06;;;;;;;;;;;;;;;16.72;32.53;101228.88;4935221;28;98280;-68
2023/05/30 00:06:33;;;;;;;;;;;;;;;16.67;32.40;101233.28;4953023;28;98627;-71
2023/05/30 00:09:01;;;;;;;;;;;;;;;16.65;32.40;101235.44;4944789;28;99352;-71
2023/05/30 00:11:30;;;;;;;;;;;;;;;16.62;32.24;101232.50;4944808;28;97958;-68
2023/05/30 00:13:57;;;;;;;;;;;;;;;16.58;32.44;101232.25;4951789;28;97942;-68
2023/05/30 00:16:23;;;;;;;;;;;;;;;16.56;32.33;101239.13;4950726;27;98238;-70
2023/05/30 00:18:52;;;;;;;;;;;;;;;16.54;32.38;101230.41;4956779;27;97899;-70
2023/05/30 00:21:19;;;;;;;;;;;;;;;16.52;32.28;101235.34;4937653;28;98376;-71
2023/05/30 00:23:45;;;;;;;;;;;;;;;16.50;32.33;101232.09;4961068;27;98056;-68
2023/05/30 00:26:15;;;;;;;;;;;;;;;16.47;32.54;101229.97;4952163;28;98189;-68
2023/05/30 00:28:42;;;;;;;;;;;;;;;16.45;32.58;101236.50;4963411;27;98026;-70
2023/05/30 00:31:08;;;;;;;;;;;;;;;16.43;32.47;101227.00;4961491;27;100935;-67
2023/05/30 00:33:35;;;;;;;;;;;;;;;16.40;32.52;101230.31;4952770;27;98151;-70
2023/05/30 00:36:01;;;;;;;;;;;;;;;16.37;32.55;101233.59;4948722;27;98411;-67
2023/05/30 00:38:28;;;;;;;;;;;;;;;16.34;32.49;101234.97;4952505;27;98165;-67
2023/05/30 00:40:58;;;;;;;;;;;;;;;16.31;32.62;101238.28;4937577;27;98165;-68
2023/05/30 00:43:24;;;;;;;;;;;;;;;16.28;32.63;101236.13;4968275;27;98714;-70
2023/05/30 00:45:53;;;;;;;;;;;;;;;16.26;32.50;101241.03;4953801;27;98113;-68
2023/05/30 00:48:19;;;;;;;;;;;;;;;16.23;32.74;101240.78;4951548;28;98428;-70
2023/05/30 00:50:45;;;;;;;;;;;;;;;16.20;32.68;101237.56;4946778;27;98260;-67
2023/05/30 00:53:11;;;;;;;;;;;;;;;16.16;32.55;101232.97;4953739;27;98312;-70
2023/05/30 00:55:39;;;;;;;;;;;;;;;16.13;32.78;101234.34;4946361;27;98090;-67
2023/05/30 00:58:06;;;;;;;;;;;;;;;16.11;32.40;101231.13;4943642;27;98519;-67
2023/05/30 01:00:33;;;;;;;;;;;;;;;16.08;32.42;101230.88;4972691;27;98409;-70
2023/05/30 01:03:02;;;;;;;;;;;;;;;16.04;32.54;101244.25;4965880;27;98250;-67
2023/05/30 01:05:28;;;;;;;;;;;;;;;16.03;32.61;101241.78;4931598;27;98271;-67
2023/05/30 01:07:55;;;;;;;;;;;;;;;15.99;32.57;101241.53;4947940;28;99994;-71
2023/05/30 01:10:21;;;;;;;;;;;;;;;15.97;32.81;101248.38;4942762;27;97986;-70
2023/05/30 01:13:06;;;;;;;;;;;;;;;15.92;32.47;101244.59;4949949;27;98377;-67
2023/05/30 01:15:36;;;;;;;;;;;;;;;15.90;32.53;101244.06;4969943;28;98189;-69
2023/05/30 01:18:39;;;;;;;;;;;;;;;15.87;32.63;101250.06;4950065;28;100604;-67
2023/05/30 01:21:13;;;;;;;;;;;;;;;15.85;32.56;101252.28;4891413;28;98317;-70
2023/05/30 01:24:01;;;;;;;;;;;;;;;15.89;32.81;101253.31;4946784;28;98147;-70
2023/05/30 01:26:56;;;;;;;;;;;;;;;15.92;32.55;101247.31;4983430;28;97957;-67
2023/05/30 01:29:29;;;;;;;;;;;;;;;15.96;32.76;101247.56;4981277;28;97939;-67
2023/05/30 01:31:57;;;;;;;;;;;;;;;15.98;32.70;101252.72;4958115;28;98983;-70
2023/05/30 01:34:23;;;;;;;;;;;;;;;15.98;32.58;101258.16;4947237;28;97984;-66
2023/05/30 01:36:51;;;;;;;;;;;;;;;15.97;32.88;101257.34;4932779;28;102173;-67
2023/05/30 01:39:18;;;;;;;;;;;;;;;15.93;32.88;101259.81;4949694;28;97885;-67
2023/05/30 01:41:47;;;;;;;;;;;;;;;15.90;32.89;101265.00;4936145;28;98168;-67
2023/05/30 01:44:26;;;;;;;;;;;;;;;15.86;32.87;101263.94;4984545;28;97918;-67
2023/05/30 01:47:17;;;;;;;;;;;;;;;15.80;32.66;101263.19;4963369;28;98047;-67
2023/05/30 01:50:14;;;;;;;;;;;;;;;15.75;33.02;101263.19;4958895;28;98325;-66
2023/05/30 01:52:43;;;;;;;;;;;;;;;15.69;32.95;101262.44;4966636;28;97856;-68
2023/05/30 01:55:10;;;;;;;;;;;;;;;15.65;33.08;101268.72;4945595;27;98078;-67
2023/05/30 01:57:43;;;;;;;;;;;;;;;15.61;33.13;101267.63;4945017;28;98383;-69
2023/05/30 02:00:11;;;;;;;;;;;;;;;15.57;32.97;101274.72;4951897;28;98206;-70
2023/05/30 02:02:38;;;;;;;;;;;;;;;15.55;32.93;101274.19;4947462;28;99269;-67
2023/05/30 02:05:06;;;;;;;;;;;;;;;15.51;32.85;101271.22;4948102;28;98059;-67
2023/05/30 02:07:32;;;;;;;;;;;;;;;15.47;32.79;101275.59;4978851;28;99997;-70
2023/05/30 02:09:58;;;;;;;;;;;;;;;15.42;32.94;101278.34;4935814;28;98713;-70
2023/05/30 02:12:24;;;;;;;;;;;;;;;15.38;33.17;101272.66;4965084;28;97975;-70
2023/05/30 02:14:54;;;;;;;;;;;;;;;15.32;32.90;101276.47;4934890;27;98284;-70
2023/05/30 02:17:21;;;;;;;;;;;;;;;15.27;32.91;101283.84;4947682;27;98323;-70
2023/05/30 02:19:51;;;;;;;;;;;;;;;15.22;33.30;101284.69;4948307;27;98983;-67
2023/05/30 02:22:20;;;;;;;;;;;;;;;15.18;33.17;101275.47;4950097;27;98038;-68
2023/05/30 02:24:47;;;;;;;;;;;;;;;15.14;33.43;101282.56;4970459;27;98042;-68
2023/05/30 02:27:13;;;;;;;;;;;;;;;15.10;33.37;101284.19;4956354;27;98045;-70
2023/05/30 02:29:40;;;;;;;;;;;;;;;15.05;33.26;101281.47;4937508;28;99562;-67
2023/05/30 02:32:06;;;;;;;;;;;;;;;15.01;33.03;101275.78;4953675;27;97996;-68
2023/05/30 02:34:33;;;;;;;;;;;;;;;14.96;32.99;101276.63;4955852;27;98304;-70
2023/05/30 02:37:00;;;;;;;;;;;;;;;14.93;33.13;101271.78;4944858;27;98003;-70
2023/05/30 02:39:26;;;;;;;;;;;;;;;14.88;33.02;101271.78;4957807;28;97760;-67
2023/05/30 02:41:53;;;;;;;;;;;;;;;14.86;33.05;101270.44;4952161;27;97968;-70
2023/05/30 02:44:19;;;;;;;;;;;;;;;14.82;33.14;101272.09;4949806;27;98348;-70
2023/05/30 02:46:46;;;;;;;;;;;;;;;14.80;33.36;101276.97;4972102;28;99059;-70
2023/05/30 02:49:12;;;;;;;;;;;;;;;14.77;33.29;101281.03;4947824;27;99667;-70
2023/05/30 02:51:43;;;;;;;;;;;;;;;14.75;33.01;101283.22;4959153;27;98032;-67
2023/05/30 02:54:12;;;;;;;;;;;;;;;14.71;33.45;101274.81;4967947;27;99728;-66
2023/05/30 02:56:39;;;;;;;;;;;;;;;14.69;33.02;101279.69;4952158;27;98554;-68
2023/05/30 02:59:05;;;;;;;;;;;;;;;14.67;33.39;101281.88;4951729;27;99783;-68
2023/05/30 03:01:33;;;;;;;;;;;;;;;14.64;33.11;101281.63;4964862;28;98838;-67
2023/05/30 03:04:00;;;;;;;;;;;;;;;14.60;33.07;101286.78;4966982;28;99549;-70
2023/05/30 03:06:27;;;;;;;;;;;;;;;14.57;33.45;101298.16;4949645;27;98192;-68
2023/05/30 03:08:58;;;;;;;;;;;;;;;14.54;33.30;101296.03;4951230;27;98037;-70
2023/05/30 03:11:25;;;;;;;;;;;;;;;14.51;33.36;101296.56;4948417;28;98639;-68
2023/05/30 03:13:51;;;;;;;;;;;;;;;14.45;33.36;101301.13;4967596;28;97988;-71
2023/05/30 03:16:18;;;;;;;;;;;;;;;14.38;33.41;101300.63;4944930;28;98384;-69
2023/05/30 03:18:44;;;;;;;;;;;;;;;14.31;33.34;101302.78;4951126;28;98181;-68
2023/05/30 03:21:10;;;;;;;;;;;;;;;14.27;33.46;101309.03;4960802;27;97902;-70
2023/05/30 03:23:36;;;;;;;;;;;;;;;14.20;33.13;101307.41;4936386;27;98204;-70
2023/05/30 03:26:03;;;;;;;;;;;;;;;14.17;33.34;101307.13;4967797;27;98419;-68
2023/05/30 03:28:31;;;;;;;;;;;;;;;14.14;33.08;101313.88;4972097;27;98190;-70
2023/05/30 03:30:58;;;;;;;;;;;;;;;14.11;33.11;101313.59;4955930;27;107453;-71
2023/05/30 03:33:24;;;;;;;;;;;;;;;14.08;33.45;101314.19;4952685;28;97985;-71
2023/05/30 03:35:50;;;;;;;;;;;;;;;14.07;33.38;101312.53;4952055;27;98129;-70
2023/05/30 03:38:17;;;;;;;;;;;;;;;14.05;33.04;101318.22;4950528;28;98214;-70
2023/05/30 03:40:43;;;;;;;;;;;;;;;14.04;33.43;101311.19;4949564;28;99724;-67
2023/05/30 03:43:11;;;;;;;;;;;;;;;14.06;33.00;101313.63;4950974;28;99323;-67
2023/05/30 03:45:37;;;;;;;;;;;;;;;14.07;33.05;101317.94;4966507;27;98385;-70
2023/05/30 03:48:04;;;;;;;;;;;;;;;14.10;33.33;101320.94;4951258;28;100113;-68
2023/05/30 03:50:30;;;;;;;;;;;;;;;14.14;33.18;101318.50;4951946;27;98345;-67
2023/05/30 03:52:57;;;;;;;;;;;;;;;14.18;33.27;101319.59;4925635;28;99485;-67
2023/05/30 03:55:23;;;;;;;;;;;;;;;14.22;32.70;101326.91;4977758;27;98216;-67
2023/05/30 03:57:49;;;;;;;;;;;;;;;14.27;32.88;101322.59;4945640;27;99091;-68
2023/05/30 04:00:16;;;;;;;;;;;;;;;14.32;33.23;101331.53;4943696;27;99489;-68
2023/05/30 04:02:42;;;;;;;;;;;;;;;14.36;32.93;101332.59;4968171;27;98158;-70
2023/05/30 04:05:09;;;;;;;;;;;;;;;14.43;32.94;101327.72;4945029;27;100156;-68
2023/05/30 04:07:35;;;;;;;;;;;;;;;14.45;33.06;101335.59;4952766;27;98306;-70
2023/05/30 04:10:03;;;;;;;;;;;;;;;14.48;32.91;101325.00;4930290;28;102097;-68
2023/05/30 04:12:30;;;;;;;;;;;;;;;14.51;33.13;101345.38;4948833;27;97935;-70
2023/05/30 04:14:56;;;;;;;;;;;;;;;14.54;33.05;101338.59;4959462;27;98363;-69
2023/05/30 04:17:26;;;;;;;;;;;;;;;14.57;33.07;101338.84;4948739;27;99011;-68
2023/05/30 04:19:52;;;;;;;;;;;;;;;14.60;32.81;101338.31;4932109;27;98389;-70
2023/05/30 04:22:19;;;;;;;;;;;;;;;14.63;32.77;101339.69;4944554;27;98292;-70
2023/05/30 04:24:45;;;;;;;;;;;;;;;14.66;32.96;101341.84;4952846;27;98082;-70
2023/05/30 04:27:13;;;;;;;;;;;;;;;14.69;32.88;101352.16;4953243;27;99470;-70
2023/05/30 04:29:43;;;;;;;;;;;;;;;14.71;32.86;101347.28;4938901;27;97961;-69
2023/05/30 04:32:11;;;;;;;;;;;;;;;14.71;33.00;101349.97;4979041;27;98042;-71
2023/05/30 04:34:39;;;;;;;;;;;;;;;14.72;33.03;101349.69;4963069;27;100765;-68
2023/05/30 04:37:07;;;;;;;;;;;;;;;14.74;33.01;101352.16;4949029;27;98127;-68
2023/05/30 04:39:33;;;;;;;;;;;;;;;14.76;33.31;101349.16;4961381;27;98308;-68
2023/05/30 04:42:04;;;;;;;;;;;;;;;14.77;33.23;101351.59;4950689;27;99637;-68
2023/05/30 04:44:37;;;;;;;;;;;;;;;14.79;33.07;101356.75;4961325;27;98294;-68
2023/05/30 04:47:08;;;;;;;;;;;;;;;14.82;32.90;101357.03;4960254;28;98146;-71
2023/05/30 04:49:39;;;;;;;;;;;;;;;14.85;32.90;101355.66;4976970;27;98164;-71
2023/05/30 04:52:08;;;;;;;;;;;;;;;14.86;32.96;101363.53;4950546;28;98084;-71
2023/05/30 04:54:34;;;;;;;;;;;;;;;14.88;33.10;101357.81;4953364;27;100962;-69
2023/05/30 04:57:00;;;;;;;;;;;;;;;14.92;33.00;101365.13;4930110;27;100380;-70
2023/05/30 04:59:26;;;;;;;;;;;;;;;14.98;33.21;101358.63;4930478;27;100324;-69
2023/05/30 05:01:53;;;;;;;;;;;;;;;15.06;33.07;101359.16;4930670;27;99599;-69
2023/05/30 05:04:20;;;;;;;;;;;;;;;15.18;32.79;101359.66;4943547;27;99821;-69
2023/05/30 05:06:46;;;;;;;;;;;;;;;15.32;32.63;101354.44;4963233;27;98230;-71
2023/05/30 05:09:13;;;;;;;;;;;;;;;15.50;32.56;101353.81;4939628;28;99700;-70
2023/05/30 05:11:39;;;;;;;;;;;;;;;15.68;32.74;101361.38;4969887;27;98299;-71
2023/05/30 05:14:06;;;;;;;;;;;;;;;15.87;32.39;101358.81;4945618;27;99739;-69
2023/05/30 05:16:32;;;;;;;;;;;;;;;16.08;32.31;101362.22;4951644;27;97913;-71
2023/05/30 05:18:59;;;;;;;;;;;;;;;16.28;32.53;101358.53;4944914;27;97827;-69
2023/05/30 05:21:26;;;;;;;;;;;;;;;16.48;32.28;101363.00;4964711;27;98221;-69
2023/05/30 05:23:52;;;;;;;;;;;;;;;16.69;32.20;101364.44;4963364;28;99305;-69
2023/05/30 05:26:18;;;;;;;;;;;;;;;16.89;32.09;101362.63;4947189;27;98073;-69
2023/05/30 05:28:45;;;;;;;;;;;;;;;17.08;32.01;101366.25;4951724;27;98455;-71
2023/05/30 05:31:11;;;;;;;;;;;;;;;17.28;31.98;101372.56;4946007;27;98345;-69
2023/05/30 05:33:37;;;;;;;;;;;;;;;17.49;31.90;101364.94;4965627;27;100493;-71
2023/05/30 05:36:04;;;;;;;;;;;;;;;17.72;31.97;101360.56;4932053;28;98074;-71
2023/05/30 05:38:30;;;;;;;;;;;;;;;17.96;32.08;101365.97;4966275;27;98404;-70
2023/05/30 05:40:57;;;;;;;;;;;;;;;18.21;31.64;101364.81;4961637;28;98057;-70
2023/05/30 05:43:23;;;;;;;;;;;;;;;18.47;31.62;101367.91;4948451;27;98022;-71
2023/05/30 05:45:51;;;;;;;;;;;;;;;18.75;31.51;101374.31;4946445;27;97878;-71
2023/05/30 05:48:17;;;;;;;;;;;;;;;19.06;31.48;101372.63;4967645;28;98938;-69
2023/05/30 05:50:43;;;;;;;;;;;;;;;19.43;31.54;101370.00;4952647;27;98111;-71
2023/05/30 05:53:11;;;;;;;;;;;;;;;19.83;31.50;101369.13;4947368;28;97802;-70
2023/05/30 05:55:38;;;;;;;;;;;;;;;20.28;31.29;101371.94;4968627;27;100930;-71
2023/05/30 05:58:05;;;;;;;;;;;;;;;20.74;31.36;101370.78;4947451;28;98118;-70
2023/05/30 06:00:35;;;;;;;;;;;;;;;21.21;31.37;101371.16;4941693;28;98009;-70
2023/05/30 06:03:02;;;;;;;;;;;;;;;21.79;31.13;101374.72;4943582;27;99374;-72
2023/05/30 06:05:29;;;;;;;;;;;;;;;22.65;30.77;101373.09;4965444;27;98262;-72
2023/05/30 06:07:57;;;;;;;;;;;;;;;24.53;29.11;101375.38;4967088;28;97935;-71
2023/05/30 06:10:27;;;;;;;;;;;;;;;24.23;29.76;101389.22;4948624;28;98206;-71
2023/05/30 06:12:53;;;;;;;;;;;;;;;24.60;30.04;101386.63;4967270;27;98289;-71
2023/05/30 06:15:20;;;;;;;;;;;;;;;25.38;29.80;101382.94;4949851;27;97946;-72
2023/05/30 06:17:46;;;;;;;;;;;;;;;25.62;30.15;101387.63;4973064;27;98097;-71
2023/05/30 06:20:13;;;;;;;;;;;;;;;26.40;29.93;101392.72;4939900;28;98143;-72
2023/05/30 06:22:39;;;;;;;;;;;;;;;27.01;29.80;101394.34;4943137;27;97994;-72
2023/05/30 06:25:09;;;;;;;;;;;;;;;28.50;28.71;101385.03;4968496;27;98267;-72
2023/05/30 06:27:36;;;;;;;;;;;;;;;29.75;28.52;101395.44;4952975;28;97951;-73
2023/05/30 06:30:05;;;;;;;;;;;;;;;29.56;29.08;101398.31;4967171;28;98335;-71
2023/05/30 06:32:32;;;;;;;;;;;;;;;30.87;28.12;101403.09;4970608;27;98495;-73
2023/05/30 06:34:58;;;;;;;;;;;;;;;32.80;26.83;101395.75;4934298;28;98002;-72
2023/05/30 06:37:24;;;;;;;;;;;;;;;33.32;26.81;101401.75;4960077;27;102156;-72
2023/05/30 06:39:50;;;;;;;;;;;;;;;33.18;27.04;101397.78;4947516;27;98210;-68
2023/05/30 06:42:16;;;;;;;;;;;;;;;32.48;27.81;101402.88;4946575;28;98990;-71
2023/05/30 06:44:43;;;;;;;;;;;;;;;31.69;28.28;101395.38;4962341;27;100069;-71
2023/05/30 06:47:09;;;;;;;;;;;;;;;31.33;28.51;101386.78;4962613;27;99108;-69
2023/05/30 06:49:35;;;;;;;;;;;;;;;31.06;28.69;101394.53;4948631;27;99282;-71
2023/05/30 06:52:01;;;;;;;;;;;;;;;30.83;28.75;101394.72;4959940;27;98346;-71
2023/05/30 06:54:27;;;;;;;;;;;;;;;30.74;29.08;101389.47;4943125;27;97858;-69
2023/05/30 06:56:53;;;;;;;;;;;;;;;30.82;28.88;101395.91;4945361;27;98167;-69
2023/05/30 06:59:19;;;;;;;;;;;;;;;31.11;28.64;101390.56;4940106;28;98382;-71
2023/05/30 07:01:46;;;;;;;;;;;;;;;31.49;28.45;101401.22;4943060;27;98741;-71
2023/05/30 07:04:12;;;;;;;;;;;;;;;31.81;28.16;101400.59;4946655;27;101578;-72
2023/05/30 07:06:38;;;;;;;;;;;;;;;32.14;28.31;101407.13;4945423;27;97862;-69
2023/05/30 07:09:05;;;;;;;;;;;;;;;32.50;28.08;101399.69;4948920;27;97939;-69
2023/05/30 07:11:31;;;;;;;;;;;;;;;32.82;27.99;101398.97;4953007;27;98459;-68
2023/05/30 07:13:57;;;;;;;;;;;;;;;33.10;27.96;101395.41;4952809;27;98506;-73
2023/05/30 07:16:23;;;;;;;;;;;;;;;33.34;27.95;101404.94;4946380;28;109148;-68
2023/05/30 07:18:49;;;;;;;;;;;;;;;33.52;27.46;101402.91;4950173;27;98072;-73
2023/05/30 07:21:15;;;;;;;;;;;;;;;33.73;27.70;101402.09;4952895;27;98810;-73
2023/05/30 07:23:41;;;;;;;;;;;;;;;33.90;27.75;101398.41;4964891;27;98345;-73
2023/05/30 07:26:08;;;;;;;;;;;;;;;34.10;27.33;101404.34;4955780;27;98039;-74
2023/05/30 07:28:35;;;;;;;;;;;;;;;34.20;27.42;101405.53;4949818;27;98024;-69
2023/05/30 07:31:01;;;;;;;;;;;;;;;34.28;27.75;101407.06;4949222;27;99683;-69
2023/05/30 07:33:27;;;;;;;;;;;;;;;34.31;27.62;101408.25;4947710;27;97955;-74
2023/05/30 07:35:54;;;;;;;;;;;;;;;34.32;27.84;101409.84;4947567;27;98148;-74
2023/05/30 07:38:20;;;;;;;;;;;;;;;34.39;27.20;101412.63;4962244;27;98149;-74
2023/05/30 07:40:47;;;;;;;;;;;;;;;34.44;27.36;101398.97;4935169;27;98277;-73
2023/05/30 07:43:13;;;;;;;;;;;;;;;34.64;27.20;101406.88;4952660;27;97918;-69
2023/05/30 07:45:39;;;;;;;;;;;;;;;34.95;27.08;101407.84;4968752;28;98043;-74
2023/05/30 07:48:06;;;;;;;;;;;;;;;35.35;27.00;101411.09;4964642;27;98158;-70
2023/05/30 07:50:32;;;;;;;;;;;;;;;35.82;26.73;101411.41;4972215;27;100866;-70
2023/05/30 07:52:59;;;;;;;;;;;;;;;36.35;26.44;101416.38;4931819;27;99451;-69
2023/05/30 07:55:26;;;;;;;;;;;;;;;36.68;26.39;101415.91;4952123;27;98401;-69
2023/05/30 07:57:53;;;;;;;;;;;;;;;37.12;26.35;101403.56;4954259;27;98007;-69
2023/05/30 08:00:19;;;;;;;;;;;;;;;37.68;25.93;101403.72;4948542;27;98127;-75
2023/05/30 08:02:46;;;;;;;;;;;;;;;38.06;26.03;101409.00;4963792;27;99619;-69
2023/05/30 08:05:13;;;;;;;;;;;;;;;38.50;26.07;101402.00;4967710;27;98462;-70
2023/05/30 08:07:40;;;;;;;;;;;;;;;38.97;25.85;101407.28;4939878;27;97771;-74
2023/05/30 08:10:08;;;;;;;;;;;;;;;39.42;25.57;101394.47;4953568;28;98772;-74
2023/05/30 08:12:35;;;;;;;;;;;;;;;40.00;25.24;101391.59;4969041;27;99880;-70
2023/05/30 08:15:01;;;;;;;;;;;;;;;40.49;25.01;101396.97;4925747;28;98144;-69
2023/05/30 08:17:29;;;;;;;;;;;;;;;41.03;24.76;101396.00;4937253;27;98351;-70
2023/05/30 08:19:55;;;;;;;;;;;;;;;41.43;24.73;101393.41;4938511;27;98103;-75
2023/05/30 08:22:23;;;;;;;;;;;;;;;41.80;24.45;101398.50;4944481;27;97775;-74
2023/05/30 08:24:54;;;;;;;;;;;;;;;42.28;24.33;101393.44;4968356;28;98832;-72
2023/05/30 08:27:21;;;;;;;;;;;;;;;42.72;24.43;101396.91;4949072;27;99488;-75
2023/05/30 08:29:50;;;;;;;;;;;;;;;42.93;24.33;101395.22;4952877;27;98270;-74
2023/05/30 08:32:17;;;;;;;;;;;;;;;43.17;24.33;101389.75;4967495;27;99527;-70
2023/05/30 08:34:45;;;;;;;;;;;;;;;43.14;24.25;101387.84;4946205;27;98150;-74
2023/05/30 08:37:11;;;;;;;;;;;;;;;43.29;24.68;101385.16;4965425;28;98776;-70
2023/05/30 08:39:38;;;;;;;;;;;;;;;43.57;24.40;101383.91;4946368;28;97648;-74
2023/05/30 08:42:05;;;;;;;;;;;;;;;43.96;24.45;101377.69;4936790;28;99682;-74
2023/05/30 08:44:31;;;;;;;;;;;;;;;44.40;23.88;101374.34;4930898;27;97977;-70
2023/05/30 08:47:01;;;;;;;;;;;;;;;44.49;24.08;101374.28;4961564;27;98239;-70
2023/05/30 08:49:31;;;;;;;;;;;;;;;44.48;24.11;101378.41;4950021;27;98414;-70
2023/05/30 08:51:58;;;;;;;;;;;;;;;44.65;23.88;101368.22;4982517;27;97877;-74
2023/05/30 08:54:26;;;;;;;;;;;;;;;44.88;23.93;101378.00;4949534;28;98195;-74
2023/05/30 08:57:18;;;;;;;;;;;;;;;45.18;23.78;101373.19;4962881;28;98305;-74
2023/05/30 08:59:45;;;;;;;;;;;;;;;45.34;23.85;101380.47;4962698;27;98811;-71
2023/05/30 09:02:11;;;;;;;;;;;;;;;45.41;23.75;101367.94;4965208;27;98076;-73
2023/05/30 09:04:37;;;;;;;;;;;;;;;45.71;23.66;101372.38;4953154;27;98052;-71
2023/05/30 09:07:05;;;;;;;;;;;;;;;45.64;23.72;101372.00;4949166;27;97878;-76
2023/05/30 09:09:32;;;;;;;;;;;;;;;45.69;23.69;101369.22;4962422;27;97994;-74
2023/05/30 09:11:59;;;;;;;;;;;;;;;45.73;23.85;101366.19;4965386;27;99531;-74
2023/05/30 09:14:26;;;;;;;;;;;;;;;45.91;23.68;101365.22;4938315;27;98007;-75
2023/05/30 09:16:53;;;;;;;;;;;;;;;45.00;24.40;101370.47;4936163;27;98286;-72
2023/05/30 09:19:19;;;;;;;;;;;;;;;43.90;24.76;101363.34;4965830;28;98350;-71
2023/05/30 09:21:46;;;;;;;;;;;;;;;43.05;25.62;101359.47;4931273;28;97918;-74
2023/05/30 09:24:12;;;;;;;;;;;;;;;42.42;25.97;101354.00;4939497;27;98154;-71
2023/05/30 09:26:52;;;;;;;;;;;;;;;42.13;25.84;101351.53;4954255;27;97928;-72
2023/05/30 09:29:19;;;;;;;;;;;;;;;42.40;25.79;101345.19;4964760;27;98068;-72
2023/05/30 09:31:46;;;;;;;;;;;;;;;42.97;25.08;101353.34;4947860;27;98364;-74
2023/05/30 09:34:19;;;;;;;;;;;;;;;43.63;24.46;101358.53;4962141;28;98146;-71
2023/05/30 09:36:57;;;;;;;;;;;;;;;44.32;24.42;101362.56;4962083;27;98020;-73
2023/05/30 09:39:26;;;;;;;;;;;;;;;44.90;23.82;101357.63;4943835;27;99964;-74
2023/05/30 09:41:55;;;;;;;;;;;;;;;45.31;23.92;101358.69;4933498;28;98084;-74
2023/05/30 09:44:21;;;;;;;;;;;;;;;45.52;23.55;101349.03;4965321;27;97985;-74
2023/05/30 09:46:49;;;;;;;;;;;;;;;45.93;23.30;101345.56;4950092;27;98523;-75
2023/05/30 09:49:19;;;;;;;;;;;;;;;45.91;23.47;101353.84;4962946;27;97939;-72
2023/05/30 09:51:46;;;;;;;;;;;;;;;46.06;23.38;101353.78;4974126;28;99062;-71
2023/05/30 09:54:17;;;;;;;;;;;;;;;46.42;23.44;101346.84;4963162;28;98200;-72
2023/05/30 09:56:45;;;;;;;;;;;;;;;46.74;23.31;101348.56;4969612;28;98063;-74
2023/05/30 09:59:13;;;;;;;;;;;;;;;46.76;23.45;101356.63;4948390;27;98100;-74
2023/05/30 10:01:46;;;;;;;;;;;;;;;46.90;23.38;101349.28;4957451;28;97981;-72
2023/05/30 10:04:13;;;;;;;;;;;;;;;46.85;23.32;101352.81;4965804;27;98100;-74
2023/05/30 10:06:41;;;;;;;;;;;;;;;46.77;23.58;101348.84;4949074;27;98033;-74
2023/05/30 10:09:09;;;;;;;;;;;;;;;46.68;23.55;101347.72;4961059;27;98046;-74
2023/05/30 10:11:36;;;;;;;;;;;;;;;46.66;23.22;101346.66;4947437;28;97908;-72
2023/05/30 10:14:03;;;;;;;;;;;;;;;46.54;23.49;101351.41;4945100;28;97964;-72
2023/05/30 10:16:29;;;;;;;;;;;;;;;46.37;23.45;101350.38;4938016;27;98051;-74
2023/05/30 10:18:57;;;;;;;;;;;;;;;46.13;23.92;101347.69;4947160;27;98952;-72
2023/05/30 10:21:23;;;;;;;;;;;;;;;45.77;24.03;101347.63;4963423;27;100117;-72
2023/05/30 10:23:50;;;;;;;;;;;;;;;45.24;24.16;101339.97;4963595;27;98153;-75
2023/05/30 10:26:16;;;;;;;;;;;;;;;44.96;24.28;101345.09;4963910;27;98428;-72
2023/05/30 10:28:44;;;;;;;;;;;;;;;44.98;24.15;101341.75;4948922;27;98083;-75
2023/05/30 10:31:11;;;;;;;;;;;;;;;45.04;23.99;101328.44;4951782;27;99096;-72
2023/05/30 10:33:38;;;;;;;;;;;;;;;45.07;23.99;101333.16;4935085;27;98555;-72
2023/05/30 10:36:04;;;;;;;;;;;;;;;45.30;23.95;101323.78;4970550;28;98209;-74
2023/05/30 10:38:34;;;;;;;;;;;;;;;45.34;23.92;101328.50;4934850;27;98459;-72
2023/05/30 10:41:05;;;;;;;;;;;;;;;45.57;23.70;101321.16;4967548;28;98249;-74
2023/05/30 10:43:44;;;;;;;;;;;;;;;45.52;23.95;101326.28;4967315;27;99601;-75
2023/05/30 10:46:48;;;;;;;;;;;;;;;45.57;23.47;101324.78;4952928;27;98072;-75
2023/05/30 10:49:20;;;;;;;;;;;;;;;45.48;23.76;101311.47;4962827;28;99170;-73
2023/05/30 10:52:06;;;;;;;;;;;;;;;45.12;23.78;101315.47;4954798;28;98393;-74
2023/05/30 10:54:36;;;;;;;;;;;;;;;44.98;24.00;101319.81;4969403;28;98152;-74
2023/05/30 10:57:23;;;;;;;;;;;;;;;44.85;24.02;101318.50;4973961;28;97950;-76
2023/05/30 10:59:50;;;;;;;;;;;;;;;44.68;23.92;101306.78;4938435;27;98077;-72
2023/05/30 11:02:20;;;;;;;;;;;;;;;44.49;24.05;101309.75;4968558;28;97865;-73
2023/05/30 11:04:50;;;;;;;;;;;;;;;44.33;24.00;101316.66;4962152;27;97815;-76
2023/05/30 11:07:17;;;;;;;;;;;;;;;44.03;23.97;101314.88;4967544;27;98045;-73
2023/05/30 11:10:01;;;;;;;;;;;;;;;43.92;24.34;101304.06;4955255;28;98285;-75
2023/05/30 11:12:27;;;;;;;;;;;;;;;43.89;23.99;101299.34;4970261;27;98539;-72
2023/05/30 11:14:58;;;;;;;;;;;;;;;43.51;24.38;101297.88;4966424;27;98162;-71
2023/05/30 11:17:35;;;;;;;;;;;;;;;43.29;24.57;101305.78;4949241;27;97847;-75
2023/05/30 11:20:15;;;;;;;;;;;;;;;42.94;24.41;101294.75;4963317;27;98062;-74
2023/05/30 11:23:01;;;;;;;;;;;;;;;42.70;24.77;101300.28;4950139;27;98055;-74
2023/05/30 11:25:29;;;;;;;;;;;;;;;42.32;24.67;101298.59;4960427;27;98275;-74
2023/05/30 11:28:05;;;;;;;;;;;;;;;42.01;25.28;101297.84;4948167;27;99451;-71
2023/05/30 11:30:39;;;;;;;;;;;;;;;41.57;25.12;101300.78;4966832;27;100064;-75
2023/05/30 11:33:09;;;;;;;;;;;;;;;41.17;25.38;101295.78;4964247;27;97891;-71
2023/05/30 11:35:37;;;;;;;;;;;;;;;40.68;25.59;101296.31;4979882;27;98017;-74
2023/05/30 11:38:04;;;;;;;;;;;;;;;40.16;26.04;101289.13;4946832;27;97892;-74
2023/05/30 11:40:30;;;;;;;;;;;;;;;39.85;25.96;101298.13;4969256;28;99360;-74
2023/05/30 11:42:57;;;;;;;;;;;;;;;39.55;26.13;101295.84;4934752;28;98445;-70
2023/05/30 11:45:25;;;;;;;;;;;;;;;39.30;26.48;101293.75;4953526;27;98236;-72
2023/05/30 11:47:51;;;;;;;;;;;;;;;39.10;26.19;101293.88;4969481;27;97897;-74
2023/05/30 11:50:21;;;;;;;;;;;;;;;38.97;26.21;101296.66;4954567;27;99664;-74
2023/05/30 11:52:48;;;;;;;;;;;;;;;38.88;26.50;101300.09;4954499;28;98147;-74
2023/05/30 11:55:15;;;;;;;;;;;;;;;38.84;26.10;101293.00;4980123;27;98343;-71
2023/05/30 11:57:42;;;;;;;;;;;;;;;38.74;26.33;101294.81;4951778;27;98285;-75
2023/05/30 12:00:11;;;;;;;;;;;;;;;38.62;26.62;101293.50;4950594;27;100518;-71
2023/05/30 12:02:40;;;;;;;;;;;;;;;38.55;26.65;101286.06;4952727;27;98267;-71
2023/05/30 12:05:08;;;;;;;;;;;;;;;38.50;26.20;101297.03;4949492;28;98227;-71
2023/05/30 12:07:35;;;;;;;;;;;;;;;38.37;26.33;101284.91;4965627;28;98130;-74
2023/05/30 12:10:02;;;;;;;;;;;;;;;38.26;26.23;101285.94;4933687;28;98534;-70
2023/05/30 12:12:30;;;;;;;;;;;;;;;38.17;25.93;101287.78;4951576;28;98071;-75
2023/05/30 12:14:56;;;;;;;;;;;;;;;38.06;26.67;101288.81;4967094;27;98100;-75
2023/05/30 12:17:25;;;;;;;;;;;;;;;38.01;26.62;101285.75;4987260;27;98011;-74
2023/05/30 12:19:58;;;;;;;;;;;;;;;37.90;26.33;101290.84;4968927;27;98108;-71
2023/05/30 12:22:27;;;;;;;;;;;;;;;37.80;26.43;101296.22;4951294;27;98189;-73
2023/05/30 12:24:53;;;;;;;;;;;;;;;37.70;26.13;101286.00;4953423;27;98635;-74
2023/05/30 12:27:25;;;;;;;;;;;;;;;37.62;26.47;101292.22;4964971;27;98955;-74
2023/05/30 12:29:51;;;;;;;;;;;;;;;37.55;26.59;101287.53;4946046;27;97973;-74
2023/05/30 12:32:26;;;;;;;;;;;;;;;37.45;26.02;101285.75;4968996;27;98783;-74
2023/05/30 12:34:56;;;;;;;;;;;;;;;37.40;26.59;101297.47;4981207;27;98211;-70
2023/05/30 12:37:24;;;;;;;;;;;;;;;37.36;26.08;101291.91;4952761;27;97884;-75
2023/05/30 12:40:05;;;;;;;;;;;;;;;37.26;26.60;101284.50;4949066;28;98513;-70
2023/05/30 12:42:32;;;;;;;;;;;;;;;37.10;26.30;101285.19;4947282;27;100681;-71